sensor_id;sensor_type;location;lat;lon;timestamp;pressure;altitude;pressure_sealevel;temperature;humidity
12077;BME280;12420;42.676;23.262;2023-11-18T00:00:47;93910.81;;;6.44;100.00
12077;BME280;12420;42.676;23.262;2023-11-18T00:03:13;93908.41;;;6.53;100.00
12077;BME280;12420;42.676;23.262;2023-11-18T00:05:42;93920.03;;;6.46;100.00
12077;BME280;12420;42.676;23.262;2023-11-18T00:08:09;93879.09;;;6.18;100.00
12077;BME280;12420;42.676;23.262;2023-11-18T00:10:35;93909.63;;;6.58;100.00
12077;BME280;12420;42.676;23.262;2023-11-18T00:13:02;93913.41;;;6.74;100.00
12077;BME280;12420;42.676;23.262;2023-11-18T00:15:29;93914.94;;;6.75;100.00
12077;BME280;12420;42.676;23.262;2023-11-18T00:17:56;93925.38;;;6.58;100.00
12077;BME280;12420;42.676;23.262;2023-11-18T00:20:24;93915.50;;;6.49;100.00
12077;BME280;12420;42.676;23.262;2023-11-18T00:22:52;93939.13;;;6.77;100.00
12077;BME280;12420;42.676;23.262;2023-11-18T00:25:20;93899.19;;;6.51;100.00
12077;BME280;12420;42.676;23.262;2023-11-18T00:27:48;93894.63;;;6.78;100.00
12077;BME280;12420;42.676;23.262;2023-11-18T00:30:16;93909.97;;;6.92;100.00
12077;BME280;12420;42.676;23.262;2023-11-18T00:32:42;93905.97;;;6.69;100.00
12077;BME280;12420;42.676;23.262;2023-11-18T00:35:09;93910.97;;;6.51;100.00
12077;BME280;12420;42.676;23.262;2023-11-18T00:37:36;93911.78;;;6.46;100.00
12077;BME280;12420;42.676;23.262;2023-11-18T00:40:06;93901.94;;;6.32;100.00
12077;BME280;12420;42.676;23.262;2023-11-18T00:42:34;93936.22;;;6.01;100.00
12077;BME280;12420;42.676;23.262;2023-11-18T00:45:01;93906.50;;;5.99;100.00
12077;BME280;12420;42.676;23.262;2023-11-18T00:47:29;93894.31;;;5.95;100.00
12077;BME280;12420;42.676;23.262;2023-11-18T00:49:56;93879.53;;;5.73;100.00
12077;BME280;12420;42.676;23.262;2023-11-18T00:52:23;93894.81;;;5.93;100.00
12077;BME280;12420;42.676;23.262;2023-11-18T00:54:49;93914.53;;;5.92;100.00
12077;BME280;12420;42.676;23.262;2023-11-18T00:57:18;93881.16;;;5.57;100.00
12077;BME280;12420;42.676;23.262;2023-11-18T00:59:45;93912.13;;;5.82;100.00
12077;BME280;12420;42.676;23.262;2023-11-18T01:02:12;93932.75;;;5.64;100.00
12077;BME280;12420;42.676;23.262;2023-11-18T01:04:38;93919.44;;;5.74;100.00
12077;BME280;12420;42.676;23.262;2023-11-18T01:07:05;93893.13;;;5.60;100.00
12077;BME280;12420;42.676;23.262;2023-11-18T01:09:33;93917.84;;;5.84;100.00
12077;BME280;12420;42.676;23.262;2023-11-18T01:12:05;93861.97;;;5.21;100.00
12077;BME280;12420;42.676;23.262;2023-11-18T01:14:36;93888.84;;;5.29;100.00
12077;BME280;12420;42.676;23.262;2023-11-18T01:17:04;93938.22;;;5.64;100.00
12077;BME280;12420;42.676;23.262;2023-11-18T01:19:31;93939.53;;;5.58;100.00
12077;BME280;12420;42.676;23.262;2023-11-18T01:21:58;93939.97;;;5.68;100.00
12077;BME280;12420;42.676;23.262;2023-11-18T01:24:26;93927.84;;;5.52;100.00
12077;BME280;12420;42.676;23.262;2023-11-18T01:26:52;93945.41;;;5.73;100.00
12077;BME280;12420;42.676;23.262;2023-11-18T01:29:19;93939.81;;;5.54;100.00
12077;BME280;12420;42.676;23.262;2023-11-18T01:31:49;93897.09;;;5.29;100.00
12077;BME280;12420;42.676;23.262;2023-11-18T01:34:16;93903.75;;;5.39;100.00
12077;BME280;12420;42.676;23.262;2023-11-18T01:36:44;93933.88;;;5.50;100.00
12077;BME280;12420;42.676;23.262;2023-11-18T01:39:10;93951.16;;;5.70;100.00
12077;BME280;12420;42.676;23.262;2023-11-18T01:41:38;93907.16;;;5.51;100.00
12077;BME280;12420;42.676;23.262;2023-11-18T01:44:05;93946.81;;;5.55;100.00
12077;BME280;12420;42.676;23.262;2023-11-18T01:46:33;93949.63;;;5.44;100.00
12077;BME280;12420;42.676;23.262;2023-11-18T01:49:02;93936.22;;;5.35;100.00
12077;BME280;12420;42.676;23.262;2023-11-18T01:51:31;93941.63;;;5.46;100.00
12077;BME280;12420;42.676;23.262;2023-11-18T01:54:02;93918.59;;;5.25;100.00
12077;BME280;12420;42.676;23.262;2023-11-18T01:56:30;93938.88;;;5.46;100.00
12077;BME280;12420;42.676;23.262;2023-11-18T01:58:58;93952.97;;;5.26;100.00
12077;BME280;12420;42.676;23.262;2023-11-18T02:01:26;93946.03;;;5.25;100.00
12077;BME280;12420;42.676;23.262;2023-11-18T02:03:54;93944.78;;;5.20;100.00
12077;BME280;12420;42.676;23.262;2023-11-18T02:06:22;93958.06;;;5.10;100.00
12077;BME280;12420;42.676;23.262;2023-11-18T02:08:49;93943.16;;;5.00;100.00
12077;BME280;12420;42.676;23.262;2023-11-18T02:11:20;93951.13;;;4.98;100.00
12077;BME280;12420;42.676;23.262;2023-11-18T02:13:53;93947.34;;;5.12;100.00
12077;BME280;12420;42.676;23.262;2023-11-18T02:16:21;93945.28;;;5.18;100.00
12077;BME280;12420;42.676;23.262;2023-11-18T02:18:50;93941.31;;;5.19;100.00
12077;BME280;12420;42.676;23.262;2023-11-18T02:21:19;93948.28;;;5.20;100.00
12077;BME280;12420;42.676;23.262;2023-11-18T02:23:49;93938.94;;;4.93;100.00
12077;BME280;12420;42.676;23.262;2023-11-18T02:26:22;93952.41;;;4.97;100.00
12077;BME280;12420;42.676;23.262;2023-11-18T02:28:49;93914.41;;;4.65;100.00
12077;BME280;12420;42.676;23.262;2023-11-18T02:31:20;93941.44;;;4.97;100.00
12077;BME280;12420;42.676;23.262;2023-11-18T02:33:55;93837.38;;;4.22;100.00
12077;BME280;12420;42.676;23.262;2023-11-18T02:36:26;93943.44;;;4.96;100.00
12077;BME280;12420;42.676;23.262;2023-11-18T02:39:04;93943.41;;;5.02;100.00
12077;BME280;12420;42.676;23.262;2023-11-18T02:41:35;93934.69;;;4.98;100.00
12077;BME280;12420;42.676;23.262;2023-11-18T02:44:03;93941.69;;;4.99;100.00
12077;BME280;12420;42.676;23.262;2023-11-18T02:46:34;93950.38;;;5.03;100.00
12077;BME280;12420;42.676;23.262;2023-11-18T02:49:03;93972.59;;;4.99;100.00
12077;BME280;12420;42.676;23.262;2023-11-18T02:51:30;93854.69;;;3.83;100.00
12077;BME280;12420;42.676;23.262;2023-11-18T02:53:59;93956.94;;;4.89;100.00
12077;BME280;12420;42.676;23.262;2023-11-18T02:56:25;93942.25;;;4.81;100.00
12077;BME280;12420;42.676;23.262;2023-11-18T02:58:54;93953.88;;;4.98;100.00
12077;BME280;12420;42.676;23.262;2023-11-18T03:01:20;93914.50;;;4.48;100.00
12077;BME280;12420;42.676;23.262;2023-11-18T03:03:48;93968.13;;;4.91;100.00
12077;BME280;12420;42.676;23.262;2023-11-18T03:06:15;93995.91;;;4.65;100.00
12077;BME280;12420;42.676;23.262;2023-11-18T03:08:41;93981.47;;;4.59;100.00
12077;BME280;12420;42.676;23.262;2023-11-18T03:11:09;93988.25;;;4.41;100.00
12077;BME280;12420;42.676;23.262;2023-11-18T03:13:37;93880.38;;;3.52;100.00
12077;BME280;12420;42.676;23.262;2023-11-18T03:16:08;93990.75;;;4.22;100.00
12077;BME280;12420;42.676;23.262;2023-11-18T03:18:38;93953.25;;;3.60;100.00
12077;BME280;12420;42.676;23.262;2023-11-18T03:21:06;94013.19;;;4.20;100.00
12077;BME280;12420;42.676;23.262;2023-11-18T03:23:33;93962.66;;;3.99;100.00
12077;BME280;12420;42.676;23.262;2023-11-18T03:26:00;93953.00;;;3.92;100.00
12077;BME280;12420;42.676;23.262;2023-11-18T03:28:26;94002.00;;;4.12;100.00
12077;BME280;12420;42.676;23.262;2023-11-18T03:30:53;94016.69;;;4.15;100.00
12077;BME280;12420;42.676;23.262;2023-11-18T03:33:21;94002.25;;;3.98;100.00
12077;BME280;12420;42.676;23.262;2023-11-18T03:35:48;94011.94;;;3.99;100.00
12077;BME280;12420;42.676;23.262;2023-11-18T03:38:15;94016.69;;;3.81;100.00
12077;BME280;12420;42.676;23.262;2023-11-18T03:40:43;93994.78;;;3.92;100.00
12077;BME280;12420;42.676;23.262;2023-11-18T03:43:11;94015.94;;;3.75;100.00
12077;BME280;12420;42.676;23.262;2023-11-18T03:45:39;94022.91;;;3.65;100.00
12077;BME280;12420;42.676;23.262;2023-11-18T03:48:06;94019.41;;;3.59;100.00
12077;BME280;12420;42.676;23.262;2023-11-18T03:50:34;94022.13;;;3.47;100.00
12077;BME280;12420;42.676;23.262;2023-11-18T03:53:01;93993.00;;;3.33;100.00
12077;BME280;12420;42.676;23.262;2023-11-18T03:55:29;94014.16;;;3.38;100.00
12077;BME280;12420;42.676;23.262;2023-11-18T03:57:56;94006.44;;;3.42;100.00
12077;BME280;12420;42.676;23.262;2023-11-18T04:00:23;93997.47;;;3.31;100.00
12077;BME280;12420;42.676;23.262;2023-11-18T04:02:55;94013.13;;;3.30;100.00
12077;BME280;12420;42.676;23.262;2023-11-18T04:05:22;94017.66;;;3.39;100.00
12077;BME280;12420;42.676;23.262;2023-11-18T04:07:50;93978.53;;;3.10;100.00
12077;BME280;12420;42.676;23.262;2023-11-18T04:10:17;94016.41;;;3.45;100.00
12077;BME280;12420;42.676;23.262;2023-11-18T04:12:45;93973.09;;;3.21;100.00
12077;BME280;12420;42.676;23.262;2023-11-18T04:15:14;94025.13;;;3.44;100.00
12077;BME280;12420;42.676;23.262;2023-11-18T04:17:40;94011.66;;;3.40;100.00
12077;BME280;12420;42.676;23.262;2023-11-18T04:20:10;94004.72;;;3.51;100.00
12077;BME280;12420;42.676;23.262;2023-11-18T04:22:38;94021.34;;;3.36;100.00
12077;BME280;12420;42.676;23.262;2023-11-18T04:25:07;94020.59;;;3.18;100.00
12077;BME280;12420;42.676;23.262;2023-11-18T04:27:35;94020.81;;;3.15;100.00
12077;BME280;12420;42.676;23.262;2023-11-18T04:30:03;94029.34;;;3.39;100.00
12077;BME280;12420;42.676;23.262;2023-11-18T04:32:29;94024.13;;;3.41;100.00
12077;BME280;12420;42.676;23.262;2023-11-18T04:34:58;94017.88;;;3.41;100.00
12077;BME280;12420;42.676;23.262;2023-11-18T04:37:25;94023.34;;;3.41;100.00
12077;BME280;12420;42.676;23.262;2023-11-18T04:39:52;94032.84;;;3.57;100.00
12077;BME280;12420;42.676;23.262;2023-11-18T04:42:20;94040.53;;;3.53;100.00
12077;BME280;12420;42.676;23.262;2023-11-18T04:44:47;94042.75;;;3.48;100.00
12077;BME280;12420;42.676;23.262;2023-11-18T04:47:14;94030.81;;;3.35;100.00
12077;BME280;12420;42.676;23.262;2023-11-18T04:49:43;94049.22;;;3.40;100.00
12077;BME280;12420;42.676;23.262;2023-11-18T04:52:10;94071.59;;;3.38;100.00
12077;BME280;12420;42.676;23.262;2023-11-18T04:54:38;94046.00;;;3.41;100.00
12077;BME280;12420;42.676;23.262;2023-11-18T04:57:05;94048.97;;;3.43;100.00
12077;BME280;12420;42.676;23.262;2023-11-18T04:59:35;94036.47;;;3.09;100.00
12077;BME280;12420;42.676;23.262;2023-11-18T05:02:02;94042.94;;;3.17;100.00
12077;BME280;12420;42.676;23.262;2023-11-18T05:04:29;94038.75;;;3.27;100.00
12077;BME280;12420;42.676;23.262;2023-11-18T05:06:56;94013.63;;;3.23;100.00
12077;BME280;12420;42.676;23.262;2023-11-18T05:09:22;94024.31;;;3.26;100.00
12077;BME280;12420;42.676;23.262;2023-11-18T05:11:49;94012.13;;;3.22;100.00
12077;BME280;12420;42.676;23.262;2023-11-18T05:14:16;93953.03;;;2.59;100.00
12077;BME280;12420;42.676;23.262;2023-11-18T05:16:44;93998.19;;;3.14;100.00
12077;BME280;12420;42.676;23.262;2023-11-18T05:19:11;94021.09;;;3.28;100.00
12077;BME280;12420;42.676;23.262;2023-11-18T05:21:38;93997.44;;;3.14;100.00
12077;BME280;12420;42.676;23.262;2023-11-18T05:24:05;94031.00;;;3.14;100.00
12077;BME280;12420;42.676;23.262;2023-11-18T05:26:32;94015.59;;;3.06;100.00
12077;BME280;12420;42.676;23.262;2023-11-18T05:29:00;94023.53;;;3.03;100.00
12077;BME280;12420;42.676;23.262;2023-11-18T05:31:26;94019.06;;;3.12;100.00
12077;BME280;12420;42.676;23.262;2023-11-18T05:33:55;94020.00;;;2.97;100.00
12077;BME280;12420;42.676;23.262;2023-11-18T05:36:23;94036.38;;;2.86;100.00
12077;BME280;12420;42.676;23.262;2023-11-18T05:38:53;94030.72;;;2.95;100.00
12077;BME280;12420;42.676;23.262;2023-11-18T05:41:20;93983.88;;;2.65;100.00
12077;BME280;12420;42.676;23.262;2023-11-18T05:43:53;94001.66;;;3.03;100.00
12077;BME280;12420;42.676;23.262;2023-11-18T05:46:22;94017.78;;;2.96;100.00
12077;BME280;12420;42.676;23.262;2023-11-18T05:48:50;93968.25;;;2.77;100.00
12077;BME280;12420;42.676;23.262;2023-11-18T05:51:24;94011.63;;;3.18;100.00
12077;BME280;12420;42.676;23.262;2023-11-18T05:53:52;93976.28;;;2.97;100.00
12077;BME280;12420;42.676;23.262;2023-11-18T05:56:19;94021.31;;;3.19;100.00
12077;BME280;12420;42.676;23.262;2023-11-18T05:58:47;94008.13;;;3.12;100.00
12077;BME280;12420;42.676;23.262;2023-11-18T06:01:15;94036.22;;;3.18;100.00
12077;BME280;12420;42.676;23.262;2023-11-18T06:03:44;94028.28;;;3.20;100.00
12077;BME280;12420;42.676;23.262;2023-11-18T06:06:12;94016.88;;;3.27;100.00
12077;BME280;12420;42.676;23.262;2023-11-18T06:08:43;94023.53;;;3.15;100.00
12077;BME280;12420;42.676;23.262;2023-11-18T06:11:12;94039.69;;;3.13;100.00
12077;BME280;12420;42.676;23.262;2023-11-18T06:13:40;94041.41;;;3.04;100.00
12077;BME280;12420;42.676;23.262;2023-11-18T06:16:09;94041.13;;;2.97;100.00
12077;BME280;12420;42.676;23.262;2023-11-18T06:18:40;94040.66;;;2.98;100.00
12077;BME280;12420;42.676;23.262;2023-11-18T06:21:22;94012.06;;;2.99;100.00
12077;BME280;12420;42.676;23.262;2023-11-18T06:23:52;94025.00;;;3.10;100.00
12077;BME280;12420;42.676;23.262;2023-11-18T06:26:20;94012.34;;;3.07;100.00
12077;BME280;12420;42.676;23.262;2023-11-18T06:28:48;94018.06;;;3.03;100.00
12077;BME280;12420;42.676;23.262;2023-11-18T06:31:15;93892.56;;;2.17;100.00
12077;BME280;12420;42.676;23.262;2023-11-18T06:33:51;94060.84;;;3.18;100.00
12077;BME280;12420;42.676;23.262;2023-11-18T06:36:21;94020.25;;;2.94;100.00
12077;BME280;12420;42.676;23.262;2023-11-18T06:38:50;94052.41;;;3.21;100.00
12077;BME280;12420;42.676;23.262;2023-11-18T06:41:20;94032.94;;;3.02;100.00
12077;BME280;12420;42.676;23.262;2023-11-18T06:43:49;93915.97;;;2.35;100.00
12077;BME280;12420;42.676;23.262;2023-11-18T06:46:23;94093.66;;;3.18;100.00
12077;BME280;12420;42.676;23.262;2023-11-18T06:48:53;93891.63;;;2.32;100.00
12077;BME280;12420;42.676;23.262;2023-11-18T06:51:23;94043.25;;;3.41;100.00
12077;BME280;12420;42.676;23.262;2023-11-18T06:53:52;94058.94;;;3.46;100.00
12077;BME280;12420;42.676;23.262;2023-11-18T06:56:22;94057.94;;;3.44;100.00
12077;BME280;12420;42.676;23.262;2023-11-18T06:58:51;94094.00;;;3.42;100.00
12077;BME280;12420;42.676;23.262;2023-11-18T07:01:18;94054.69;;;3.45;100.00
12077;BME280;12420;42.676;23.262;2023-11-18T07:03:46;94072.38;;;3.44;100.00
12077;BME280;12420;42.676;23.262;2023-11-18T07:06:18;94071.34;;;3.36;100.00
12077;BME280;12420;42.676;23.262;2023-11-18T07:08:48;94029.53;;;3.19;100.00
12077;BME280;12420;42.676;23.262;2023-11-18T07:11:17;94058.91;;;3.35;100.00
12077;BME280;12420;42.676;23.262;2023-11-18T07:13:47;94060.44;;;3.47;100.00
12077;BME280;12420;42.676;23.262;2023-11-18T07:16:14;94050.69;;;3.35;100.00
12077;BME280;12420;42.676;23.262;2023-11-18T07:18:41;94062.34;;;3.24;100.00
12077;BME280;12420;42.676;23.262;2023-11-18T07:21:10;94067.56;;;3.22;100.00
12077;BME280;12420;42.676;23.262;2023-11-18T07:23:37;94054.81;;;3.02;100.00
12077;BME280;12420;42.676;23.262;2023-11-18T07:26:04;94083.22;;;3.22;100.00
12077;BME280;12420;42.676;23.262;2023-11-18T07:28:31;94071.59;;;3.38;100.00
12077;BME280;12420;42.676;23.262;2023-11-18T07:30:59;94071.59;;;3.38;100.00
12077;BME280;12420;42.676;23.262;2023-11-18T07:33:30;94083.53;;;3.35;100.00
12077;BME280;12420;42.676;23.262;2023-11-18T07:35:58;94085.78;;;3.42;100.00
12077;BME280;12420;42.676;23.262;2023-11-18T07:38:25;94090.25;;;3.45;100.00
12077;BME280;12420;42.676;23.262;2023-11-18T07:40:52;94081.78;;;3.43;100.00
12077;BME280;12420;42.676;23.262;2023-11-18T07:43:22;94082.31;;;3.47;100.00
12077;BME280;12420;42.676;23.262;2023-11-18T07:45:49;94112.88;;;3.35;100.00
12077;BME280;12420;42.676;23.262;2023-11-18T07:48:19;94107.41;;;3.35;100.00
12077;BME280;12420;42.676;23.262;2023-11-18T07:50:47;94107.16;;;3.38;100.00
12077;BME280;12420;42.676;23.262;2023-11-18T07:53:14;94093.78;;;3.52;100.00
12077;BME280;12420;42.676;23.262;2023-11-18T07:55:41;94090.72;;;3.27;100.00
12077;BME280;12420;42.676;23.262;2023-11-18T07:58:09;94071.56;;;3.21;100.00
12077;BME280;12420;42.676;23.262;2023-11-18T08:00:37;94100.16;;;3.26;100.00
12077;BME280;12420;42.676;23.262;2023-11-18T08:03:04;94079.69;;;3.04;100.00
12077;BME280;12420;42.676;23.262;2023-11-18T08:05:39;94082.25;;;3.25;100.00
12077;BME280;12420;42.676;23.262;2023-11-18T08:08:07;94104.38;;;3.21;100.00
12077;BME280;12420;42.676;23.262;2023-11-18T08:10:34;94097.38;;;3.20;100.00
12077;BME280;12420;42.676;23.262;2023-11-18T08:13:03;94094.41;;;3.18;100.00
12077;BME280;12420;42.676;23.262;2023-11-18T08:15:30;94073.66;;;2.95;100.00
12077;BME280;12420;42.676;23.262;2023-11-18T08:17:57;94088.44;;;3.14;100.00
12077;BME280;12420;42.676;23.262;2023-11-18T08:20:23;94100.63;;;3.19;100.00
12077;BME280;12420;42.676;23.262;2023-11-18T08:22:52;94127.97;;;3.19;100.00
12077;BME280;12420;42.676;23.262;2023-11-18T08:25:19;94115.75;;;3.09;100.00
12077;BME280;12420;42.676;23.262;2023-11-18T08:27:47;94113.78;;;3.20;100.00
12077;BME280;12420;42.676;23.262;2023-11-18T08:30:14;94129.41;;;3.03;100.00
12077;BME280;12420;42.676;23.262;2023-11-18T08:32:44;94121.06;;;3.29;100.00
12077;BME280;12420;42.676;23.262;2023-11-18T08:35:11;94133.47;;;3.30;100.00
12077;BME280;12420;42.676;23.262;2023-11-18T08:37:41;94113.59;;;3.30;100.00
12077;BME280;12420;42.676;23.262;2023-11-18T08:40:11;94106.59;;;3.23;100.00
12077;BME280;12420;42.676;23.262;2023-11-18T08:42:41;94142.22;;;3.40;100.00
12077;BME280;12420;42.676;23.262;2023-11-18T08:45:14;94127.00;;;3.28;100.00
12077;BME280;12420;42.676;23.262;2023-11-18T08:47:42;94125.81;;;3.45;100.00
12077;BME280;12420;42.676;23.262;2023-11-18T08:50:09;94132.19;;;3.20;100.00
12077;BME280;12420;42.676;23.262;2023-11-18T08:52:38;94173.91;;;3.09;100.00
12077;BME280;12420;42.676;23.262;2023-11-18T08:55:11;94163.34;;;2.85;100.00
12077;BME280;12420;42.676;23.262;2023-11-18T08:57:45;94166.31;;;2.87;100.00
12077;BME280;12420;42.676;23.262;2023-11-18T09:00:24;94147.94;;;2.88;100.00
12077;BME280;12420;42.676;23.262;2023-11-18T09:03:08;94064.22;;;2.04;100.00
12077;BME280;12420;42.676;23.262;2023-11-18T09:05:45;94113.31;;;2.68;100.00
12077;BME280;12420;42.676;23.262;2023-11-18T09:08:25;94135.75;;;2.83;100.00
12077;BME280;12420;42.676;23.262;2023-11-18T09:10:54;94147.25;;;2.98;100.00
12077;BME280;12420;42.676;23.262;2023-11-18T09:13:22;94141.25;;;2.94;100.00
12077;BME280;12420;42.676;23.262;2023-11-18T09:15:50;94143.06;;;3.03;100.00
12077;BME280;12420;42.676;23.262;2023-11-18T09:18:17;94126.44;;;3.12;100.00
12077;BME280;12420;42.676;23.262;2023-11-18T09:20:45;94143.38;;;3.16;100.00
12077;BME280;12420;42.676;23.262;2023-11-18T09:23:13;94152.81;;;3.15;100.00
12077;BME280;12420;42.676;23.262;2023-11-18T09:25:41;94134.09;;;3.02;100.00
12077;BME280;12420;42.676;23.262;2023-11-18T09:28:14;94143.25;;;2.94;100.00
12077;BME280;12420;42.676;23.262;2023-11-18T09:30:41;94144.06;;;3.06;100.00
12077;BME280;12420;42.676;23.262;2023-11-18T09:33:16;94143.09;;;3.09;100.00
12077;BME280;12420;42.676;23.262;2023-11-18T09:35:51;94114.47;;;2.98;100.00
12077;BME280;12420;42.676;23.262;2023-11-18T09:38:21;93987.06;;;2.09;100.00
12077;BME280;12420;42.676;23.262;2023-11-18T09:40:51;94113.94;;;2.94;100.00
12077;BME280;12420;42.676;23.262;2023-11-18T09:43:20;94112.22;;;3.02;100.00
12077;BME280;12420;42.676;23.262;2023-11-18T09:45:49;94132.34;;;2.99;100.00
12077;BME280;12420;42.676;23.262;2023-11-18T09:48:18;94114.50;;;3.10;100.00
12077;BME280;12420;42.676;23.262;2023-11-18T09:50:51;94129.00;;;3.27;100.00
12077;BME280;12420;42.676;23.262;2023-11-18T09:53:19;94132.50;;;3.33;100.00
12077;BME280;12420;42.676;23.262;2023-11-18T09:55:55;94133.72;;;3.26;100.00
12077;BME280;12420;42.676;23.262;2023-11-18T09:58:31;94121.78;;;3.24;100.00
12077;BME280;12420;42.676;23.262;2023-11-18T10:01:06;94116.06;;;3.22;100.00
12077;BME280;12420;42.676;23.262;2023-11-18T10:03:40;94104.91;;;3.31;100.00
12077;BME280;12420;42.676;23.262;2023-11-18T10:06:09;94107.88;;;3.28;100.00
12077;BME280;12420;42.676;23.262;2023-11-18T10:08:36;94101.91;;;3.29;100.00
12077;BME280;12420;42.676;23.262;2023-11-18T10:11:04;94060.53;;;2.99;100.00
12077;BME280;12420;42.676;23.262;2023-11-18T10:13:35;94097.66;;;3.28;100.00
12077;BME280;12420;42.676;23.262;2023-11-18T10:16:06;94067.00;;;3.01;100.00
12077;BME280;12420;42.676;23.262;2023-11-18T10:18:34;94056.34;;;3.15;100.00
12077;BME280;12420;42.676;23.262;2023-11-18T10:21:02;94110.59;;;3.33;100.00
12077;BME280;12420;42.676;23.262;2023-11-18T10:23:33;94110.13;;;3.29;100.00
12077;BME280;12420;42.676;23.262;2023-11-18T10:26:03;94094.66;;;3.20;100.00
12077;BME280;12420;42.676;23.262;2023-11-18T10:28:33;94096.25;;;2.90;100.00
12077;BME280;12420;42.676;23.262;2023-11-18T10:31:06;94123.81;;;3.40;100.00
12077;BME280;12420;42.676;23.262;2023-11-18T10:33:36;94124.78;;;3.32;100.00
12077;BME280;12420;42.676;23.262;2023-11-18T10:36:05;94130.00;;;3.30;100.00
12077;BME280;12420;42.676;23.262;2023-11-18T10:38:39;94084.72;;;3.23;100.00
12077;BME280;12420;42.676;23.262;2023-11-18T10:41:09;94117.63;;;3.45;100.00
12077;BME280;12420;42.676;23.262;2023-11-18T10:43:37;94124.34;;;3.50;100.00
12077;BME280;12420;42.676;23.262;2023-11-18T10:46:09;94101.38;;;3.19;100.00
12077;BME280;12420;42.676;23.262;2023-11-18T10:48:39;94104.13;;;3.25;100.00
12077;BME280;12420;42.676;23.262;2023-11-18T10:51:10;94127.06;;;3.44;100.00
12077;BME280;12420;42.676;23.262;2023-11-18T10:53:40;94107.16;;;3.38;100.00
12077;BME280;12420;42.676;23.262;2023-11-18T10:56:17;94114.13;;;3.39;100.00
12077;BME280;12420;42.676;23.262;2023-11-18T10:58:49;94113.38;;;3.39;100.00
12077;BME280;12420;42.676;23.262;2023-11-18T11:01:27;94121.59;;;3.44;100.00
12077;BME280;12420;42.676;23.262;2023-11-18T11:03:54;94101.94;;;3.40;100.00
12077;BME280;12420;42.676;23.262;2023-11-18T11:06:23;94083.25;;;3.28;100.00
12077;BME280;12420;42.676;23.262;2023-11-18T11:08:50;94101.69;;;2.84;100.00
12077;BME280;12420;42.676;23.262;2023-11-18T11:11:19;94095.25;;;3.41;100.00
12077;BME280;12420;42.676;23.262;2023-11-18T11:13:49;94113.59;;;3.35;100.00
12077;BME280;12420;42.676;23.262;2023-11-18T11:16:20;94071.72;;;2.95;100.00
12077;BME280;12420;42.676;23.262;2023-11-18T11:18:53;94127.06;;;3.39;100.00
12077;BME280;12420;42.676;23.262;2023-11-18T11:21:25;94095.16;;;3.19;100.00
12077;BME280;12420;42.676;23.262;2023-11-18T11:23:57;94120.34;;;3.45;100.00
12077;BME280;12420;42.676;23.262;2023-11-18T11:26:38;94088.00;;;3.38;100.00
12077;BME280;12420;42.676;23.262;2023-11-18T11:29:23;94158.69;;;3.51;100.00
12077;BME280;12420;42.676;23.262;2023-11-18T11:32:02;94098.94;;;3.38;100.00
12077;BME280;12420;42.676;23.262;2023-11-18T11:34:39;94136.75;;;3.40;100.00
12077;BME280;12420;42.676;23.262;2023-11-18T11:37:11;94105.94;;;3.45;100.00
12077;BME280;12420;42.676;23.262;2023-11-18T11:39:40;94088.19;;;3.18;100.00
12077;BME280;12420;42.676;23.262;2023-11-18T11:42:13;94101.16;;;3.29;100.00
12077;BME280;12420;42.676;23.262;2023-11-18T11:44:43;94059.31;;;3.06;100.00
12077;BME280;12420;42.676;23.262;2023-11-18T11:47:12;94080.25;;;3.20;100.00
12077;BME280;12420;42.676;23.262;2023-11-18T11:49:44;94042.41;;;3.01;100.00
12077;BME280;12420;42.676;23.262;2023-11-18T11:52:19;94063.06;;;3.14;100.00
12077;BME280;12420;42.676;23.262;2023-11-18T11:54:59;94101.72;;;3.50;100.00
12077;BME280;12420;42.676;23.262;2023-11-18T11:57:28;94049.63;;;3.10;100.00
12077;BME280;12420;42.676;23.262;2023-11-18T11:59:55;94052.59;;;3.07;100.00
12077;BME280;12420;42.676;23.262;2023-11-18T12:02:25;94075.34;;;3.46;100.00
12077;BME280;12420;42.676;23.262;2023-11-18T12:04:55;94123.13;;;3.57;100.00
12077;BME280;12420;42.676;23.262;2023-11-18T12:07:25;94096.50;;;3.52;100.00
12077;BME280;12420;42.676;23.262;2023-11-18T12:10:07;94106.69;;;3.45;100.00
12077;BME280;12420;42.676;23.262;2023-11-18T12:12:39;94071.00;;;3.06;100.00
12077;BME280;12420;42.676;23.262;2023-11-18T12:15:08;94103.00;;;3.54;100.00
12077;BME280;12420;42.676;23.262;2023-11-18T12:18:13;94100.75;;;3.58;100.00
12077;BME280;12420;42.676;23.262;2023-11-18T12:20:43;94117.22;;;3.75;100.00
12077;BME280;12420;42.676;23.262;2023-11-18T12:23:13;94095.78;;;3.57;100.00
12077;BME280;12420;42.676;23.262;2023-11-18T12:25:40;94108.00;;;3.61;100.00
12077;BME280;12420;42.676;23.262;2023-11-18T12:28:08;94109.00;;;3.64;100.00
12077;BME280;12420;42.676;23.262;2023-11-18T12:30:38;94104.72;;;3.57;100.00
12077;BME280;12420;42.676;23.262;2023-11-18T12:33:09;94091.78;;;3.58;100.00
12077;BME280;12420;42.676;23.262;2023-11-18T12:41:33;94113.25;;;3.87;100.00
12077;BME280;12420;42.676;23.262;2023-11-18T12:44:14;94086.56;;;3.60;100.00
12077;BME280;12420;42.676;23.262;2023-11-18T12:46:53;94121.69;;;3.78;100.00
12077;BME280;12420;42.676;23.262;2023-11-18T12:49:21;94118.44;;;3.68;100.00
12077;BME280;12420;42.676;23.262;2023-11-18T12:51:52;94105.47;;;3.63;100.00
12077;BME280;12420;42.676;23.262;2023-11-18T12:54:21;94070.84;;;3.38;100.00
12077;BME280;12420;42.676;23.262;2023-11-18T12:56:50;94119.19;;;3.69;100.00
12077;BME280;12420;42.676;23.262;2023-11-18T12:59:19;94112.69;;;3.61;100.00
12077;BME280;12420;42.676;23.262;2023-11-18T13:01:47;94118.94;;;3.67;100.00
12077;BME280;12420;42.676;23.262;2023-11-18T13:04:18;94130.84;;;3.58;100.00
12077;BME280;12420;42.676;23.262;2023-11-18T13:06:46;94109.19;;;3.55;100.00